Saratoga, Arkansas
Current Conditions -  °F | °C
As of 2:53 AM on Saturday 01 Nov 2014 (Local Time) from KTXK Reporting Station
Clear Clear  
Wind Chill: 36°   Ceiling: Unl
Heat Index: 39°   Visibility: 10mi
Dew Point: 27°   Wind: 5mph
Humidity: 62%   Direction: 50°NE
Pressure: 30.38"   Gusts: NA
Location:  33.75°N, 93.9°W
Report Text: KTXK 010753Z AUTO 05004KT 10SM CLR 04/M03 A3038 RMK AO2 SLP287 T00391028
Loading
Personal Weather Stations






























Interactive Weather Map
Tropical Storm Tracking
New forecast layout! Learn more

10-Day Weather Forecast

Advertisements
Track Severe Weather on mobile